createdAt,value
2023-05-19T00:01:45.216Z,7.37
2023-05-19T00:04:15.907Z,7.62
2023-05-19T00:06:52.147Z,7.53
2023-05-19T00:09:22.108Z,7.24
2023-05-19T00:11:51.523Z,7.32
2023-05-19T00:14:21.145Z,7.66
2023-05-19T00:16:50.655Z,7.36
2023-05-19T00:19:20.142Z,7.36
2023-05-19T00:21:50.034Z,7.51
2023-05-19T00:24:19.305Z,7.32
2023-05-19T00:26:48.700Z,7.27
2023-05-19T00:29:20.659Z,7.55
2023-05-19T00:31:49.980Z,7.35
2023-05-19T00:34:19.324Z,7.58
2023-05-19T00:36:48.704Z,7.69
2023-05-19T00:39:18.022Z,7.36
2023-05-19T00:41:47.356Z,7.34
2023-05-19T00:44:16.685Z,7.22
2023-05-19T00:46:45.839Z,7.43
2023-05-19T00:49:15.106Z,7.45
2023-05-19T00:51:44.783Z,6.99
2023-05-19T00:54:14.352Z,7.57
2023-05-19T00:56:43.969Z,7.35
2023-05-19T00:59:13.444Z,7.63
2023-05-19T01:01:42.686Z,7.55
2023-05-19T01:04:12.662Z,7.59
2023-05-19T01:06:43.050Z,7.45
2023-05-19T01:09:13.336Z,7.51
2023-05-19T01:11:42.676Z,7.34
2023-05-19T01:14:12.068Z,7.62
2023-05-19T01:17:13.184Z,7.30
2023-05-19T01:20:03.459Z,7.32
2023-05-19T01:22:56.223Z,7.44
2023-05-19T01:25:49.814Z,7.48
2023-05-19T01:28:52.802Z,7.54
2023-05-19T01:31:26.252Z,7.01
2023-05-19T01:33:56.474Z,7.33
2023-05-19T01:36:27.860Z,7.76
2023-05-19T01:39:00.873Z,7.35
2023-05-19T01:41:33.723Z,7.63
2023-05-19T01:44:03.748Z,7.34
2023-05-19T01:46:33.060Z,6.75
2023-05-19T01:49:02.863Z,6.91
2023-05-19T01:51:33.029Z,6.79
2023-05-19T01:54:02.507Z,6.84
2023-05-19T01:57:09.034Z,6.75
2023-05-19T01:59:56.342Z,6.97
2023-05-19T02:03:03.315Z,7.26
2023-05-19T02:05:43.054Z,7.10
2023-05-19T02:08:53.064Z,6.90
2023-05-19T02:11:39.098Z,6.47
2023-05-19T02:14:31.562Z,6.97
2023-05-19T02:17:02.969Z,6.77
2023-05-19T02:19:36.561Z,8.45
2023-05-19T02:22:06.798Z,8.03
2023-05-19T02:24:38.149Z,8.15
2023-05-19T02:27:08.064Z,7.99
2023-05-19T02:29:37.961Z,8.40
2023-05-19T02:32:08.576Z,7.76
2023-05-19T02:34:38.397Z,8.25
2023-05-19T02:37:09.231Z,8.08
2023-05-19T02:39:38.957Z,7.47
2023-05-19T02:42:08.654Z,8.02
2023-05-19T02:44:38.541Z,8.57
2023-05-19T02:47:08.019Z,7.95
2023-05-19T02:49:37.274Z,7.70
2023-05-19T02:52:08.099Z,7.66
2023-05-19T02:54:37.651Z,7.07
2023-05-19T02:57:08.166Z,7.10
2023-05-19T02:59:37.998Z,7.73
2023-05-19T03:02:07.807Z,7.75
2023-05-19T03:04:42.967Z,7.62
2023-05-19T03:07:14.606Z,8.27
2023-05-19T03:09:44.174Z,7.88
2023-05-19T03:12:13.698Z,7.89
2023-05-19T03:14:43.717Z,7.16
2023-05-19T03:17:13.753Z,8.48
2023-05-19T03:19:43.591Z,7.90
2023-05-19T03:22:13.062Z,8.39
2023-05-19T03:24:42.691Z,6.50
2023-05-19T03:27:13.167Z,8.12
2023-05-19T03:29:42.588Z,7.30
2023-05-19T03:32:12.176Z,7.82
2023-05-19T03:34:41.969Z,7.40
2023-05-19T03:37:12.219Z,6.67
2023-05-19T03:39:47.506Z,7.69
2023-05-19T03:42:17.474Z,8.54
2023-05-19T03:44:47.094Z,8.37
2023-05-19T03:47:16.798Z,8.39
2023-05-19T03:49:46.331Z,7.80
2023-05-19T03:52:15.813Z,7.13
2023-05-19T03:54:46.332Z,7.80
2023-05-19T03:57:17.306Z,7.65
2023-05-19T03:59:47.462Z,8.71
2023-05-19T04:02:20.907Z,8.12
2023-05-19T04:04:51.964Z,7.99
2023-05-19T04:07:21.460Z,7.93
2023-05-19T04:09:52.332Z,7.47
2023-05-19T04:12:21.626Z,7.75
2023-05-19T04:14:51.288Z,7.86
2023-05-19T04:17:21.240Z,7.93
2023-05-19T04:19:50.805Z,7.40
2023-05-19T04:22:20.348Z,7.15
2023-05-19T04:24:50.463Z,6.78
2023-05-19T04:27:20.301Z,7.48
2023-05-19T04:29:51.089Z,7.05
2023-05-19T04:32:20.707Z,7.18
2023-05-19T04:34:51.023Z,7.89
2023-05-19T04:37:21.293Z,7.25
2023-05-19T04:39:50.964Z,7.68
2023-05-19T04:42:20.945Z,7.77
2023-05-19T04:44:53.237Z,7.48
2023-05-19T04:47:22.785Z,6.92
2023-05-19T04:49:56.913Z,7.81
2023-05-19T04:52:26.419Z,8.19
2023-05-19T04:54:55.901Z,7.28
2023-05-19T04:57:25.425Z,6.87
2023-05-19T05:00:01.094Z,7.26
2023-05-19T05:02:30.677Z,6.95
2023-05-19T05:05:00.334Z,7.53
2023-05-19T05:07:31.650Z,7.81
2023-05-19T05:10:01.978Z,7.88
2023-05-19T05:12:31.664Z,7.87
2023-05-19T05:15:01.611Z,7.53
2023-05-19T05:17:31.747Z,7.90
2023-05-19T05:20:01.620Z,8.24
2023-05-19T05:22:31.273Z,7.74
2023-05-19T05:25:01.807Z,6.69
2023-05-19T05:27:31.268Z,7.10
2023-05-19T05:30:00.679Z,7.69
2023-05-19T05:32:30.781Z,8.17
2023-05-19T05:35:00.752Z,7.55
2023-05-19T05:37:30.876Z,7.30
2023-05-19T05:40:00.514Z,7.97
2023-05-19T05:42:30.021Z,8.28
2023-05-19T05:44:59.730Z,7.79
2023-05-19T05:47:29.640Z,7.91
2023-05-19T05:49:59.531Z,8.00
2023-05-19T05:52:32.733Z,8.09
2023-05-19T05:55:02.894Z,7.97
2023-05-19T05:57:32.673Z,7.86
2023-05-19T06:00:02.557Z,7.70
2023-05-19T06:02:32.401Z,7.55
2023-05-19T06:05:02.216Z,7.80
2023-05-19T06:07:32.215Z,7.34
2023-05-19T06:10:01.797Z,7.46
2023-05-19T06:12:32.944Z,7.76
2023-05-19T06:15:03.549Z,7.70
2023-05-19T06:17:33.164Z,7.93
2023-05-19T06:20:03.219Z,7.76
2023-05-19T06:22:32.903Z,7.73
2023-05-19T06:25:02.449Z,7.85
2023-05-19T06:27:34.059Z,7.50
2023-05-19T06:30:04.529Z,7.44
2023-05-19T06:32:34.204Z,7.77
2023-05-19T06:35:04.249Z,7.33
2023-05-19T06:37:34.081Z,7.11
2023-05-19T06:40:03.693Z,6.25
2023-05-19T06:42:33.315Z,6.31
2023-05-19T06:45:02.761Z,7.22
2023-05-19T06:47:32.703Z,6.87
2023-05-19T06:50:02.227Z,7.13
2023-05-19T06:52:31.521Z,7.23
2023-05-19T06:55:01.019Z,6.77
2023-05-19T06:57:30.652Z,6.23
2023-05-19T07:00:00.180Z,6.87
2023-05-19T07:02:29.858Z,15.85
2023-05-19T07:04:59.450Z,8.67
2023-05-19T07:07:28.896Z,8.19
2023-05-19T07:09:58.687Z,10.50
2023-05-19T07:12:28.362Z,8.92
2023-05-19T07:14:57.958Z,8.30
2023-05-19T07:17:27.680Z,8.30
2023-05-19T07:19:57.475Z,7.67
2023-05-19T07:22:27.031Z,7.34
2023-05-19T07:24:58.482Z,8.46
2023-05-19T07:27:27.955Z,16.02
2023-05-19T07:29:57.590Z,9.78
2023-05-19T07:32:27.981Z,9.15
2023-05-19T07:34:57.581Z,8.72
2023-05-19T07:37:27.862Z,7.09
2023-05-19T07:39:58.092Z,6.51
2023-05-19T07:42:27.699Z,6.47
2023-05-19T07:44:57.172Z,5.95
2023-05-19T07:47:26.723Z,6.98
2023-05-19T07:49:56.531Z,7.18
2023-05-19T07:52:26.183Z,6.83
2023-05-19T07:54:55.898Z,5.95
2023-05-19T07:57:28.645Z,6.59
2023-05-19T07:59:58.324Z,6.37
2023-05-19T08:02:28.113Z,6.73
2023-05-19T08:04:57.864Z,6.57
2023-05-19T08:07:27.727Z,6.43
2023-05-19T08:09:57.609Z,5.97
2023-05-19T08:12:27.075Z,6.15
2023-05-19T08:14:57.782Z,6.50
2023-05-19T08:17:28.492Z,7.41
2023-05-19T08:19:58.013Z,7.08
2023-05-19T08:22:27.644Z,7.08
2023-05-19T08:24:57.148Z,7.26
2023-05-19T08:27:26.831Z,7.18
2023-05-19T08:29:57.018Z,7.27
2023-05-19T08:32:26.699Z,6.45
2023-05-19T08:34:56.415Z,6.92
2023-05-19T08:37:26.643Z,12.08
2023-05-19T08:39:57.058Z,15.12
2023-05-19T08:42:26.731Z,12.06
2023-05-19T08:44:56.405Z,9.96
2023-05-19T08:47:26.904Z,8.39
2023-05-19T08:50:12.479Z,7.54
2023-05-19T08:53:32.556Z,7.42
2023-05-19T08:56:15.643Z,7.52
2023-05-19T08:58:47.438Z,7.21
2023-05-19T09:01:20.699Z,7.66
2023-05-19T09:03:51.037Z,7.84
2023-05-19T09:06:20.958Z,7.77
2023-05-19T09:08:50.483Z,7.96
2023-05-19T09:11:20.234Z,7.69
2023-05-19T09:13:50.987Z,8.41
2023-05-19T09:16:20.455Z,8.28
2023-05-19T09:19:00.390Z,8.27
2023-05-19T09:21:34.438Z,8.92
2023-05-19T09:24:08.392Z,9.08
2023-05-19T09:26:44.480Z,8.82
2023-05-19T09:29:19.442Z,8.11
2023-05-19T09:31:57.553Z,8.44
2023-05-19T09:34:28.241Z,8.19
2023-05-19T09:36:59.360Z,8.02
2023-05-19T09:39:30.308Z,8.25
2023-05-19T09:41:59.984Z,7.67
2023-05-19T09:44:34.047Z,8.15
2023-05-19T09:47:05.561Z,8.18
2023-05-19T09:49:35.359Z,8.24
2023-05-19T09:52:06.062Z,7.96
2023-05-19T09:54:36.750Z,8.32
2023-05-19T09:57:09.037Z,8.18
2023-05-19T09:59:40.430Z,7.99
2023-05-19T10:02:21.627Z,8.59
2023-05-19T10:04:54.453Z,8.69
2023-05-19T10:07:26.350Z,8.50
2023-05-19T10:09:58.593Z,8.78
2023-05-19T10:12:29.800Z,8.31
2023-05-19T10:15:00.979Z,8.28
2023-05-19T10:17:31.367Z,8.23
2023-05-19T10:20:02.505Z,8.08
2023-05-19T10:22:32.207Z,7.99
2023-05-19T10:25:01.807Z,8.26
2023-05-19T10:27:34.104Z,8.08
2023-05-19T10:30:15.669Z,7.96
2023-05-19T10:32:49.939Z,7.88
2023-05-19T10:35:39.739Z,7.25
2023-05-19T10:38:22.663Z,8.92
2023-05-19T10:41:15.480Z,9.15
2023-05-19T10:43:50.711Z,9.58
2023-05-19T10:46:20.050Z,9.51
2023-05-19T10:48:49.387Z,9.77
2023-05-19T10:51:18.709Z,9.33
2023-05-19T10:53:48.016Z,9.41
2023-05-19T10:56:37.774Z,9.27
2023-05-19T10:59:07.173Z,9.23
2023-05-19T11:01:39.704Z,9.50
2023-05-19T11:04:16.792Z,9.10
2023-05-19T11:06:53.808Z,8.92
2023-05-19T11:09:37.897Z,9.19
2023-05-19T11:12:12.033Z,9.14
2023-05-19T11:14:42.618Z,9.24
2023-05-19T11:17:17.609Z,9.09
2023-05-19T11:20:01.483Z,9.09
2023-05-19T11:22:30.711Z,9.27
2023-05-19T11:24:59.969Z,9.01
2023-05-19T11:27:34.178Z,8.64
2023-05-19T11:30:06.752Z,8.79
2023-05-19T11:32:40.635Z,9.41
2023-05-19T11:35:11.382Z,9.15
2023-05-19T11:37:42.727Z,9.03
2023-05-19T11:40:12.292Z,8.99
2023-05-19T11:42:42.274Z,9.15
2023-05-19T11:45:11.991Z,9.52
2023-05-19T11:47:59.723Z,9.44
2023-05-19T11:50:30.624Z,9.89
2023-05-19T11:53:02.704Z,9.94
2023-05-19T11:55:32.758Z,10.55
2023-05-19T11:58:06.276Z,10.93
2023-05-19T12:00:41.837Z,11.28
2023-05-19T12:03:11.717Z,12.08
2023-05-19T12:05:48.993Z,12.33
2023-05-19T12:08:22.772Z,12.09
2023-05-19T12:10:53.806Z,13.03
2023-05-19T12:13:24.915Z,13.05
2023-05-19T12:15:54.796Z,13.17
2023-05-19T12:18:24.049Z,12.03
2023-05-19T12:20:53.424Z,12.84
2023-05-19T12:23:23.149Z,12.44
2023-05-19T12:25:52.965Z,12.84
2023-05-19T12:28:22.412Z,12.97
2023-05-19T12:30:53.830Z,12.53
2023-05-19T12:33:24.184Z,12.55
2023-05-19T12:35:53.578Z,12.68
2023-05-19T12:38:23.356Z,12.43
2023-05-19T12:40:52.792Z,12.35
2023-05-19T12:43:25.584Z,12.72
2023-05-19T12:45:55.465Z,12.77
2023-05-19T12:48:25.035Z,12.91
2023-05-19T12:50:56.734Z,12.91
2023-05-19T12:53:29.413Z,12.80
2023-05-19T12:55:58.643Z,13.15
2023-05-19T12:58:27.904Z,13.39
2023-05-19T13:01:02.259Z,13.36
2023-05-19T13:03:31.619Z,13.58
2023-05-19T13:06:01.051Z,13.53
2023-05-19T13:08:30.952Z,13.90
2023-05-19T13:11:00.135Z,14.72
2023-05-19T13:13:29.596Z,14.75
2023-05-19T13:15:58.881Z,14.96
2023-05-19T13:18:36.854Z,15.46
2023-05-19T13:21:06.987Z,15.84
2023-05-19T13:23:36.092Z,16.12
2023-05-19T13:26:06.263Z,16.29
2023-05-19T13:28:36.169Z,16.74
2023-05-19T13:31:05.456Z,16.54
2023-05-19T13:33:34.694Z,18.05
2023-05-19T13:36:03.871Z,17.15
2023-05-19T13:38:32.986Z,17.47
2023-05-19T13:41:02.359Z,17.53
2023-05-19T13:43:31.486Z,17.71
2023-05-19T13:46:00.812Z,17.28
2023-05-19T13:48:30.062Z,17.28
2023-05-19T13:50:59.404Z,18.34
2023-05-19T13:53:28.748Z,17.95
2023-05-19T13:55:57.964Z,17.83
2023-05-19T13:58:27.907Z,17.86
2023-05-19T14:01:04.098Z,17.95
2023-05-19T14:03:44.727Z,17.97
2023-05-19T14:06:13.958Z,17.51
2023-05-19T14:08:43.611Z,17.55
2023-05-19T14:11:32.393Z,17.49
2023-05-19T14:14:02.767Z,17.37
2023-05-19T14:16:35.150Z,17.14
2023-05-19T14:19:05.172Z,16.66
2023-05-19T14:21:34.582Z,16.89
2023-05-19T14:24:03.826Z,15.85
2023-05-19T14:26:33.249Z,16.19
2023-05-19T14:29:03.060Z,15.43
2023-05-19T14:31:32.784Z,14.85
2023-05-19T14:34:02.440Z,14.61
2023-05-19T14:36:32.440Z,14.08
2023-05-19T14:39:01.752Z,14.28
2023-05-19T14:41:30.941Z,14.06
2023-05-19T14:44:00.537Z,13.00
2023-05-19T14:46:29.737Z,13.12
2023-05-19T14:48:58.986Z,12.10
2023-05-19T14:51:28.297Z,12.03
2023-05-19T14:53:57.450Z,11.65
2023-05-19T14:56:26.624Z,11.42
2023-05-19T14:58:55.882Z,11.56
2023-05-19T15:01:25.226Z,11.02
2023-05-19T15:03:54.658Z,10.80
2023-05-19T15:06:24.800Z,10.44
2023-05-19T15:08:54.170Z,10.56
2023-05-19T15:11:23.715Z,10.36
2023-05-19T15:13:53.234Z,10.00
2023-05-19T15:16:22.564Z,9.62
2023-05-19T15:18:52.997Z,10.02
2023-05-19T15:21:22.431Z,9.48
2023-05-19T15:23:51.615Z,9.29
2023-05-19T15:26:20.913Z,9.15
2023-05-19T15:28:50.219Z,9.31
2023-05-19T15:31:19.799Z,8.98
2023-05-19T15:33:49.242Z,9.17
2023-05-19T15:36:18.580Z,8.97
2023-05-19T15:38:47.814Z,9.24
2023-05-19T15:41:17.129Z,8.84
2023-05-19T15:43:47.678Z,9.17
2023-05-19T15:46:17.493Z,9.30
2023-05-19T15:48:46.769Z,8.93
2023-05-19T15:51:16.147Z,9.36
2023-05-19T15:53:45.201Z,8.91
2023-05-19T15:56:17.770Z,8.49
2023-05-19T15:58:47.492Z,9.07
2023-05-19T16:01:18.068Z,8.87
2023-05-19T16:03:47.791Z,8.80
2023-05-19T16:06:17.181Z,8.50
2023-05-19T16:08:46.306Z,8.79
2023-05-19T16:11:15.866Z,8.69
2023-05-19T16:13:45.047Z,8.65
2023-05-19T16:16:14.339Z,8.49
2023-05-19T16:18:45.393Z,8.73
2023-05-19T16:21:14.653Z,8.56
2023-05-19T16:23:43.954Z,8.77
2023-05-19T16:26:13.138Z,8.66
2023-05-19T16:28:42.381Z,8.66
2023-05-19T16:31:11.739Z,8.68
2023-05-19T16:33:41.238Z,8.41
2023-05-19T16:36:10.535Z,8.80
2023-05-19T16:38:39.691Z,8.90
2023-05-19T16:41:12.768Z,8.46
2023-05-19T16:43:42.037Z,8.47
2023-05-19T16:46:13.266Z,8.60
2023-05-19T16:48:42.579Z,8.53
2023-05-19T16:51:11.878Z,8.50
2023-05-19T16:53:41.258Z,8.34
2023-05-19T16:56:10.573Z,8.55
2023-05-19T16:58:39.830Z,8.27
2023-05-19T17:01:11.094Z,8.66
2023-05-19T17:03:40.438Z,8.84
2023-05-19T17:06:09.692Z,8.48
2023-05-19T17:08:39.002Z,8.46
2023-05-19T17:11:08.328Z,8.82
2023-05-19T17:13:38.552Z,8.99
2023-05-19T17:16:10.559Z,8.81
2023-05-19T17:18:39.765Z,8.39
2023-05-19T17:21:08.831Z,8.12
2023-05-19T17:23:39.115Z,8.56
2023-05-19T17:26:08.469Z,8.41
2023-05-19T17:28:37.804Z,8.58
2023-05-19T17:31:17.095Z,8.43
2023-05-19T17:33:46.272Z,8.49
2023-05-19T17:36:16.407Z,8.85
2023-05-19T17:38:45.688Z,8.62
2023-05-19T17:41:15.400Z,9.00
2023-05-19T17:43:45.459Z,9.01
2023-05-19T17:46:14.588Z,8.97
2023-05-19T17:48:43.911Z,8.88
2023-05-19T17:51:13.451Z,8.90
2023-05-19T17:53:43.696Z,8.60
2023-05-19T17:56:14.197Z,8.47
2023-05-19T17:58:43.740Z,9.25
2023-05-19T18:01:13.052Z,8.46
2023-05-19T18:03:42.675Z,8.60
2023-05-19T18:06:13.575Z,8.89
2023-05-19T18:08:44.023Z,8.86
2023-05-19T18:11:17.181Z,9.17
2023-05-19T18:13:47.531Z,9.10
2023-05-19T18:16:16.713Z,9.43
2023-05-19T18:18:51.368Z,9.32
2023-05-19T18:21:21.239Z,8.96
2023-05-19T18:23:50.396Z,8.76
2023-05-19T18:26:19.634Z,8.76
2023-05-19T18:28:48.940Z,8.70
2023-05-19T18:31:20.784Z,8.64
2023-05-19T18:33:50.585Z,8.90
2023-05-19T18:36:20.319Z,8.92
2023-05-19T18:38:49.568Z,9.02
2023-05-19T18:41:18.923Z,8.92
2023-05-19T18:43:48.247Z,9.06
2023-05-19T18:46:19.854Z,8.82
2023-05-19T18:48:51.107Z,8.92
2023-05-19T18:51:21.544Z,8.80
2023-05-19T18:53:51.409Z,8.92
2023-05-19T18:56:27.832Z,8.65
2023-05-19T18:58:57.100Z,9.10
2023-05-19T19:01:26.394Z,8.80
2023-05-19T19:03:55.776Z,8.91
2023-05-19T19:06:24.992Z,9.26
2023-05-19T19:08:54.286Z,8.61
2023-05-19T19:11:23.766Z,9.21
2023-05-19T19:13:56.670Z,8.81
2023-05-19T19:16:26.023Z,9.01
2023-05-19T19:18:55.275Z,8.94
2023-05-19T19:21:25.475Z,8.79
2023-05-19T19:23:56.122Z,8.88
2023-05-19T19:26:30.133Z,8.56
2023-05-19T19:29:00.169Z,8.91
2023-05-19T19:31:32.026Z,8.62
2023-05-19T19:34:04.857Z,8.71
2023-05-19T19:36:33.986Z,8.73
2023-05-19T19:39:03.314Z,8.88
2023-05-19T19:41:34.450Z,9.44
2023-05-19T19:44:03.780Z,9.25
2023-05-19T19:46:32.997Z,8.91
2023-05-19T19:49:02.697Z,9.48
2023-05-19T19:51:32.847Z,9.00
2023-05-19T19:54:02.398Z,8.82
2023-05-19T19:56:31.697Z,9.09
2023-05-19T19:59:00.930Z,9.12
2023-05-19T20:01:30.267Z,8.96
2023-05-19T20:03:59.748Z,8.90
2023-05-19T20:06:29.177Z,8.86
2023-05-19T20:08:58.434Z,8.78
2023-05-19T20:11:28.022Z,8.98
2023-05-19T20:13:57.321Z,8.98
2023-05-19T20:16:26.639Z,9.08
2023-05-19T20:18:55.891Z,8.80
2023-05-19T20:21:24.976Z,9.09
2023-05-19T20:23:54.267Z,9.03
2023-05-19T20:26:23.782Z,9.10
2023-05-19T20:28:52.833Z,9.08
2023-05-19T20:31:22.734Z,8.59
2023-05-19T20:33:52.552Z,8.92
2023-05-19T20:36:22.286Z,8.82
2023-05-19T20:38:51.498Z,9.04
2023-05-19T20:41:20.647Z,9.17
2023-05-19T20:43:49.821Z,9.16
2023-05-19T20:46:19.151Z,8.91
2023-05-19T20:48:48.436Z,8.74
2023-05-19T20:51:17.767Z,8.97
2023-05-19T20:53:47.076Z,9.20
2023-05-19T20:56:16.395Z,9.02
2023-05-19T20:58:45.648Z,8.83
2023-05-19T21:01:14.796Z,8.91
2023-05-19T21:03:44.061Z,8.90
2023-05-19T21:06:13.590Z,8.81
2023-05-19T21:08:42.722Z,9.06
2023-05-19T21:11:12.051Z,9.08
2023-05-19T21:13:41.884Z,8.87
2023-05-19T21:16:11.804Z,8.83
2023-05-19T21:18:41.113Z,8.82
2023-05-19T21:21:10.345Z,8.91
2023-05-19T21:23:39.607Z,8.91
2023-05-19T21:26:08.866Z,9.19
2023-05-19T21:28:37.892Z,8.98
2023-05-19T21:31:07.203Z,8.75
2023-05-19T21:33:36.514Z,8.66
2023-05-19T21:36:05.789Z,8.86
2023-05-19T21:38:35.020Z,8.59
2023-05-19T21:41:04.189Z,8.81
2023-05-19T21:43:33.442Z,8.44
2023-05-19T21:46:02.662Z,9.28
2023-05-19T21:48:32.128Z,8.92
2023-05-19T21:51:01.461Z,8.99
2023-05-19T21:53:30.972Z,9.09
2023-05-19T21:56:00.741Z,8.82
2023-05-19T21:58:30.921Z,8.93
2023-05-19T22:01:01.678Z,8.73
2023-05-19T22:03:31.099Z,8.91
2023-05-19T22:06:00.388Z,8.98
2023-05-19T22:08:29.938Z,8.95
2023-05-19T22:10:59.161Z,9.21
2023-05-19T22:13:28.754Z,9.02
2023-05-19T22:15:58.602Z,8.90
2023-05-19T22:18:27.772Z,8.76
2023-05-19T22:20:56.985Z,9.32
2023-05-19T22:23:26.252Z,9.26
2023-05-19T22:25:55.431Z,8.83
2023-05-19T22:28:24.536Z,9.42
2023-05-19T22:30:53.746Z,8.91
2023-05-19T22:33:22.861Z,8.81
2023-05-19T22:35:52.345Z,8.98
2023-05-19T22:38:21.673Z,9.47
2023-05-19T22:40:51.231Z,9.33
2023-05-19T22:43:20.516Z,9.66
2023-05-19T22:45:49.880Z,9.43
2023-05-19T22:48:19.245Z,9.29
2023-05-19T22:50:48.572Z,9.35
2023-05-19T22:53:17.808Z,9.40
2023-05-19T22:55:47.031Z,9.46
2023-05-19T22:58:16.203Z,9.58
2023-05-19T23:00:45.309Z,9.94
2023-05-19T23:03:14.553Z,9.51
2023-05-19T23:05:44.421Z,10.20
2023-05-19T23:08:13.553Z,9.83
2023-05-19T23:10:42.760Z,9.68
2023-05-19T23:13:13.420Z,9.41
2023-05-19T23:15:42.616Z,9.61
2023-05-19T23:18:12.758Z,9.98
2023-05-19T23:20:42.187Z,10.11
2023-05-19T23:23:11.522Z,10.07
2023-05-19T23:25:40.774Z,10.17
2023-05-19T23:28:11.551Z,10.31
2023-05-19T23:30:40.739Z,10.22
2023-05-19T23:33:09.902Z,9.94
2023-05-19T23:35:40.810Z,10.18
2023-05-19T23:38:09.976Z,10.65
2023-05-19T23:40:39.061Z,10.50
2023-05-19T23:43:08.507Z,10.62
2023-05-19T23:45:37.735Z,10.48
2023-05-19T23:48:07.319Z,10.88
2023-05-19T23:50:36.744Z,11.51
2023-05-19T23:53:06.128Z,11.05
2023-05-19T23:55:35.578Z,11.06
2023-05-19T23:58:05.178Z,11.04
